createdAt,value
2022-11-20T00:00:24.558Z,71.92
2022-11-20T00:02:54.857Z,71.61
2022-11-20T00:05:25.262Z,71.61
2022-11-20T00:07:55.493Z,71.77
2022-11-20T00:10:25.736Z,71.55
2022-11-20T00:12:55.908Z,71.92
2022-11-20T00:15:25.988Z,71.75
2022-11-20T00:17:56.015Z,71.98
2022-11-20T00:20:26.175Z,71.55
2022-11-20T00:22:56.302Z,72.02
2022-11-20T00:25:26.386Z,71.58
2022-11-20T00:27:56.707Z,71.82
2022-11-20T00:30:26.759Z,71.85
2022-11-20T00:32:56.980Z,71.84
2022-11-20T00:35:27.432Z,71.94
2022-11-20T00:37:57.714Z,71.59
2022-11-20T00:40:27.966Z,71.75
2022-11-20T00:42:58.179Z,71.99
2022-11-20T00:45:28.400Z,71.95
2022-11-20T00:47:58.584Z,71.98
2022-11-20T00:50:28.870Z,71.76
2022-11-20T00:52:59.050Z,71.97
2022-11-20T00:55:29.299Z,71.71
2022-11-20T00:58:02.411Z,71.55
2022-11-20T01:00:34.449Z,71.28
2022-11-20T01:03:04.549Z,71.38
2022-11-20T01:05:39.075Z,71.14
2022-11-20T01:08:09.266Z,71.42
2022-11-20T01:10:39.738Z,71.22
2022-11-20T01:13:28.061Z,71.18
2022-11-20T01:15:58.282Z,71.20
2022-11-20T01:18:28.468Z,71.24
2022-11-20T01:20:58.778Z,71.06
2022-11-20T01:23:28.882Z,70.83
2022-11-20T01:25:59.269Z,70.71
2022-11-20T01:28:29.492Z,70.89
2022-11-20T01:31:00.246Z,70.85
2022-11-20T01:33:31.232Z,71.30
2022-11-20T01:36:08.758Z,71.04
2022-11-20T01:38:39.550Z,70.88
2022-11-20T01:41:10.976Z,71.11
2022-11-20T01:43:40.753Z,70.71
2022-11-20T01:46:19.807Z,70.81
2022-11-20T01:48:49.969Z,71.03
2022-11-20T01:51:37.009Z,70.98
2022-11-20T01:54:12.563Z,71.09
2022-11-20T01:56:47.704Z,71.10
2022-11-20T01:59:22.498Z,70.99
2022-11-20T02:01:52.978Z,70.90
2022-11-20T02:04:24.433Z,71.05
2022-11-20T02:07:04.690Z,71.02
2022-11-20T02:09:35.211Z,70.77
2022-11-20T02:12:06.530Z,71.15
2022-11-20T02:14:36.359Z,70.83
2022-11-20T02:17:06.741Z,70.99
2022-11-20T02:19:37.021Z,70.76
2022-11-20T02:22:17.846Z,70.98
2022-11-20T02:24:51.168Z,70.99
2022-11-20T02:27:21.939Z,70.95
2022-11-20T02:30:03.868Z,71.15
2022-11-20T02:32:39.211Z,70.69
2022-11-20T02:35:21.249Z,71.05
2022-11-20T02:37:56.552Z,70.95
2022-11-20T02:40:27.333Z,70.61
2022-11-20T02:42:59.095Z,70.54
2022-11-20T02:45:29.357Z,70.57
2022-11-20T02:47:59.850Z,70.59
2022-11-20T02:50:30.142Z,70.39
2022-11-20T02:53:00.358Z,70.47
2022-11-20T02:55:30.701Z,70.72
2022-11-20T02:58:00.977Z,70.65
2022-11-20T03:00:31.290Z,70.63
2022-11-20T03:03:01.616Z,70.34
2022-11-20T03:05:31.903Z,70.57
2022-11-20T03:08:02.422Z,70.31
2022-11-20T03:10:32.703Z,70.66
2022-11-20T03:13:03.762Z,70.57
2022-11-20T03:15:34.017Z,70.16
2022-11-20T03:18:04.313Z,70.27
2022-11-20T03:20:37.092Z,70.46
2022-11-20T03:23:07.482Z,70.28
2022-11-20T03:25:38.980Z,70.16
2022-11-20T03:28:09.201Z,70.30
2022-11-20T03:30:39.483Z,70.01
2022-11-20T03:33:09.801Z,70.24
2022-11-20T03:35:40.067Z,69.68
2022-11-20T03:38:10.275Z,70.23
2022-11-20T03:40:40.461Z,69.98
2022-11-20T03:43:10.746Z,70.11
2022-11-20T03:45:41.080Z,70.10
2022-11-20T03:48:11.388Z,70.01
2022-11-20T03:50:41.678Z,69.91
2022-11-20T03:53:11.912Z,69.76
2022-11-20T03:55:42.131Z,69.73
2022-11-20T03:58:13.252Z,69.84
2022-11-20T04:00:43.499Z,69.79
2022-11-20T04:03:13.791Z,69.55
2022-11-20T04:05:43.882Z,69.78
2022-11-20T04:08:14.119Z,69.32
2022-11-20T04:10:44.890Z,69.39
2022-11-20T04:13:15.319Z,69.18
2022-11-20T04:15:45.527Z,69.33
2022-11-20T04:18:15.639Z,68.82
2022-11-20T04:20:45.684Z,69.05
2022-11-20T04:23:15.722Z,68.76
2022-11-20T04:25:45.767Z,68.86
2022-11-20T04:28:15.871Z,68.76
2022-11-20T04:30:46.541Z,68.75
2022-11-20T04:33:16.904Z,68.94
2022-11-20T04:35:50.916Z,68.86
2022-11-20T04:38:21.261Z,69.02
2022-11-20T04:40:51.663Z,68.13
2022-11-20T04:43:21.931Z,68.63
2022-11-20T04:45:58.996Z,68.48
2022-11-20T04:48:30.543Z,68.59
2022-11-20T04:51:02.133Z,68.37
2022-11-20T04:53:32.428Z,68.56
2022-11-20T04:56:08.060Z,68.33
2022-11-20T04:58:39.634Z,68.75
2022-11-20T05:01:16.196Z,68.47
2022-11-20T05:03:47.975Z,68.39
2022-11-20T05:06:21.936Z,68.39
2022-11-20T05:08:53.012Z,68.17
2022-11-20T05:11:24.285Z,67.79
2022-11-20T05:13:55.295Z,67.57
2022-11-20T05:16:27.513Z,67.98
2022-11-20T05:18:58.773Z,67.45
2022-11-20T05:21:28.882Z,67.40
2022-11-20T05:23:59.134Z,66.91
2022-11-20T05:26:29.438Z,67.28
2022-11-20T05:28:59.772Z,67.46
2022-11-20T05:31:29.879Z,67.69
2022-11-20T05:34:01.047Z,67.85
2022-11-20T05:36:31.026Z,67.64
2022-11-20T05:39:01.934Z,67.76
2022-11-20T05:41:32.877Z,67.54
2022-11-20T05:44:03.148Z,67.34
2022-11-20T05:46:33.703Z,67.27
2022-11-20T05:49:03.931Z,66.92
2022-11-20T05:51:34.274Z,67.13
2022-11-20T05:54:04.308Z,66.95
2022-11-20T05:56:34.936Z,67.18
2022-11-20T05:59:05.238Z,67.42
2022-11-20T06:01:35.453Z,66.94
2022-11-20T06:04:06.227Z,66.68
2022-11-20T06:06:36.531Z,67.06
2022-11-20T06:09:06.935Z,66.53
2022-11-20T06:11:37.219Z,66.61
2022-11-20T06:14:07.368Z,66.81
2022-11-20T06:16:37.454Z,66.50
2022-11-20T06:19:07.556Z,66.47
2022-11-20T06:21:37.638Z,67.06
2022-11-20T06:24:07.915Z,66.61
2022-11-20T06:26:38.275Z,66.74
2022-11-20T06:29:08.319Z,66.95
2022-11-20T06:31:40.893Z,67.44
2022-11-20T06:34:12.119Z,66.91
2022-11-20T06:36:42.340Z,67.29
2022-11-20T06:39:12.739Z,67.07
2022-11-20T06:41:42.943Z,67.45
2022-11-20T06:44:13.081Z,67.73
2022-11-20T06:46:44.756Z,67.34
2022-11-20T06:49:15.073Z,66.97
2022-11-20T06:51:45.085Z,67.59
2022-11-20T06:54:15.327Z,67.27
2022-11-20T06:56:45.614Z,67.58
2022-11-20T06:59:16.001Z,67.45
2022-11-20T07:01:46.487Z,67.33
2022-11-20T07:04:16.743Z,67.51
2022-11-20T07:06:47.003Z,67.31
2022-11-20T07:09:17.313Z,67.70
2022-11-20T07:11:47.641Z,67.52
2022-11-20T07:14:17.914Z,67.47
2022-11-20T07:16:48.034Z,67.37
2022-11-20T07:19:18.341Z,67.42
2022-11-20T07:21:48.684Z,67.73
2022-11-20T07:24:19.022Z,67.38
2022-11-20T07:26:53.805Z,67.79
2022-11-20T07:29:24.149Z,67.81
2022-11-20T07:31:54.493Z,67.63
2022-11-20T07:34:24.601Z,67.51
2022-11-20T07:36:54.957Z,67.73
2022-11-20T07:39:25.220Z,67.60
2022-11-20T07:41:55.485Z,67.64
2022-11-20T07:44:25.739Z,67.33
2022-11-20T07:46:56.078Z,66.78
2022-11-20T07:49:26.165Z,67.68
2022-11-20T07:52:01.736Z,67.03
2022-11-20T07:54:34.533Z,67.63
2022-11-20T07:57:04.753Z,67.38
2022-11-20T07:59:34.927Z,67.52
2022-11-20T08:02:05.023Z,67.57
2022-11-20T08:04:36.390Z,67.75
2022-11-20T08:07:06.686Z,67.48
2022-11-20T08:09:36.947Z,67.91
2022-11-20T08:12:25.437Z,67.80
2022-11-20T08:14:55.637Z,67.88
2022-11-20T08:17:26.023Z,67.94
2022-11-20T08:19:56.297Z,67.62
2022-11-20T08:22:26.870Z,67.74
2022-11-20T08:24:57.201Z,67.23
2022-11-20T08:27:27.216Z,67.58
2022-11-20T08:29:57.488Z,67.32
2022-11-20T08:32:27.995Z,67.39
2022-11-20T08:34:58.463Z,66.73
2022-11-20T08:37:28.662Z,67.43
2022-11-20T08:40:00.221Z,67.21
2022-11-20T08:42:30.498Z,67.76
2022-11-20T08:45:00.745Z,67.45
2022-11-20T08:47:30.984Z,67.43
2022-11-20T08:50:01.278Z,67.61
2022-11-20T08:52:33.449Z,67.52
2022-11-20T08:55:04.810Z,67.59
2022-11-20T08:57:39.448Z,67.91
2022-11-20T09:00:14.212Z,67.56
2022-11-20T09:02:44.627Z,67.57
2022-11-20T09:05:15.107Z,67.67
2022-11-20T09:07:45.418Z,68.05
2022-11-20T09:10:24.369Z,67.64
2022-11-20T09:12:56.157Z,67.79
2022-11-20T09:15:28.246Z,67.66
2022-11-20T09:18:01.254Z,67.55
2022-11-20T09:20:33.090Z,67.73
2022-11-20T09:23:03.287Z,67.28
2022-11-20T09:25:33.681Z,67.83
2022-11-20T09:28:03.762Z,67.84
2022-11-20T09:30:34.096Z,68.00
2022-11-20T09:33:04.379Z,68.14
2022-11-20T09:35:34.856Z,68.32
2022-11-20T09:38:12.785Z,68.46
2022-11-20T09:40:48.975Z,68.77
2022-11-20T09:43:53.429Z,69.25
2022-11-20T09:46:41.702Z,69.36
2022-11-20T09:49:30.737Z,68.85
2022-11-20T09:52:21.775Z,68.99
2022-11-20T09:54:53.299Z,68.68
2022-11-20T09:57:29.682Z,68.92
2022-11-20T10:00:09.207Z,69.04
2022-11-20T10:02:55.894Z,68.57
2022-11-20T10:05:42.722Z,69.03
2022-11-20T10:08:25.575Z,68.05
2022-11-20T10:11:16.356Z,68.07
2022-11-20T10:14:07.284Z,67.68
2022-11-20T10:16:48.535Z,66.47
2022-11-20T10:19:36.078Z,66.24
2022-11-20T10:22:23.981Z,66.38
2022-11-20T10:25:04.604Z,65.96
2022-11-20T10:28:31.163Z,66.61
2022-11-20T10:31:06.672Z,65.66
2022-11-20T10:34:10.610Z,65.39
2022-11-20T10:36:42.395Z,65.69
2022-11-20T10:39:36.520Z,65.40
2022-11-20T10:43:37.239Z,65.69
2022-11-20T10:46:16.037Z,65.37
2022-11-20T10:48:49.831Z,65.04
2022-11-20T10:51:42.026Z,65.34
2022-11-20T10:54:17.926Z,65.62
2022-11-20T10:56:56.467Z,65.61
2022-11-20T10:59:36.834Z,65.72
2022-11-20T11:02:23.415Z,65.61
2022-11-20T11:04:57.757Z,65.56
2022-11-20T11:07:42.008Z,65.16
2022-11-20T11:10:29.819Z,65.42
2022-11-20T11:13:00.221Z,65.67
2022-11-20T11:15:39.867Z,65.62
2022-11-20T11:18:14.510Z,65.63
2022-11-20T11:20:54.281Z,65.98
2022-11-20T11:23:35.706Z,65.64
2022-11-20T11:26:08.893Z,65.88
2022-11-20T11:28:39.185Z,66.05
2022-11-20T11:31:09.838Z,65.85
2022-11-20T11:33:40.395Z,66.01
2022-11-20T11:36:23.616Z,65.98
2022-11-20T11:38:57.535Z,66.15
2022-11-20T11:41:34.826Z,65.82
2022-11-20T11:44:56.426Z,66.02
2022-11-20T11:47:34.256Z,65.83
2022-11-20T11:50:13.925Z,65.97
2022-11-20T11:53:09.794Z,65.87
2022-11-20T11:55:46.205Z,66.33
2022-11-20T11:58:46.840Z,66.10
2022-11-20T12:01:37.316Z,66.64
2022-11-20T12:04:27.248Z,66.35
2022-11-20T12:07:45.612Z,66.85
2022-11-20T12:10:27.513Z,66.10
2022-11-20T12:13:12.902Z,66.41
2022-11-20T12:15:47.880Z,66.39
2022-11-20T12:18:25.513Z,66.40
2022-11-20T12:21:09.289Z,66.38
2022-11-20T12:24:11.694Z,66.59
2022-11-20T12:26:51.559Z,66.70
2022-11-20T12:29:33.521Z,66.59
2022-11-20T12:32:18.836Z,66.72
2022-11-20T12:35:01.594Z,66.69
2022-11-20T12:38:08.302Z,66.44
2022-11-20T12:41:42.441Z,66.61
2022-11-20T12:44:48.986Z,66.11
2022-11-20T12:47:25.229Z,65.51
2022-11-20T12:50:16.920Z,66.11
2022-11-20T12:52:52.787Z,65.69
2022-11-20T12:55:37.542Z,66.02
2022-11-20T12:58:26.284Z,65.65
2022-11-20T13:01:42.998Z,65.70
2022-11-20T13:04:50.445Z,65.75
2022-11-20T13:07:22.687Z,65.76
2022-11-20T13:09:54.703Z,65.78
2022-11-20T13:12:30.317Z,65.90
2022-11-20T13:15:18.207Z,65.58
2022-11-20T13:18:06.380Z,65.77
2022-11-20T13:20:38.477Z,65.79
2022-11-20T13:23:08.856Z,65.61
2022-11-20T13:25:43.599Z,65.62
2022-11-20T13:28:14.984Z,65.26
2022-11-20T13:30:56.460Z,65.65
2022-11-20T13:33:32.513Z,65.47
2022-11-20T13:36:30.497Z,65.50
2022-11-20T13:39:01.248Z,65.50
2022-11-20T13:41:36.532Z,65.73
2022-11-20T13:44:13.026Z,65.54
2022-11-20T13:46:50.585Z,65.41
2022-11-20T13:49:25.084Z,65.70
2022-11-20T13:52:19.723Z,65.54
2022-11-20T13:55:06.751Z,65.73
2022-11-20T13:58:05.824Z,65.76
2022-11-20T14:00:36.215Z,66.12
2022-11-20T14:03:06.511Z,66.27
2022-11-20T14:05:44.015Z,66.83
2022-11-20T14:08:24.889Z,67.29
2022-11-20T14:11:05.550Z,67.85
2022-11-20T14:13:36.244Z,67.52
2022-11-20T14:16:06.569Z,67.61
2022-11-20T14:18:36.879Z,67.72
2022-11-20T14:21:08.495Z,67.92
2022-11-20T14:23:38.844Z,67.78
2022-11-20T14:26:08.964Z,67.84
2022-11-20T14:28:39.341Z,67.76
2022-11-20T14:31:25.086Z,67.44
2022-11-20T14:33:57.514Z,67.23
2022-11-20T14:36:29.432Z,66.38
2022-11-20T14:38:59.768Z,66.50
2022-11-20T14:41:29.841Z,66.04
2022-11-20T14:44:05.299Z,66.32
2022-11-20T14:46:36.959Z,66.37
2022-11-20T14:49:08.076Z,66.36
2022-11-20T14:51:46.394Z,66.64
2022-11-20T14:54:25.865Z,66.52
2022-11-20T14:57:07.448Z,66.18
2022-11-20T14:59:38.861Z,66.62
2022-11-20T15:02:18.108Z,67.31
2022-11-20T15:04:53.651Z,67.65
2022-11-20T15:07:33.103Z,67.71
2022-11-20T15:10:15.331Z,68.01
2022-11-20T15:12:51.601Z,67.75
2022-11-20T15:15:33.293Z,68.18
2022-11-20T15:18:04.185Z,67.75
2022-11-20T15:20:37.330Z,67.71
2022-11-20T15:23:18.194Z,67.66
2022-11-20T15:25:49.804Z,67.48
2022-11-20T15:28:25.259Z,67.73
2022-11-20T15:30:55.966Z,67.51
2022-11-20T15:33:26.363Z,67.85
2022-11-20T15:35:56.737Z,67.12
2022-11-20T15:38:27.461Z,67.40
2022-11-20T15:40:57.875Z,67.36
2022-11-20T15:43:28.348Z,67.56
2022-11-20T15:46:03.520Z,67.48
2022-11-20T15:48:44.648Z,67.43
2022-11-20T15:51:39.051Z,67.54
2022-11-20T15:54:26.430Z,67.62
2022-11-20T15:56:57.118Z,67.55
2022-11-20T15:59:27.911Z,67.34
2022-11-20T16:01:58.424Z,67.64
2022-11-20T16:04:28.773Z,67.38
2022-11-20T16:06:59.429Z,67.30
2022-11-20T16:09:29.878Z,67.63
2022-11-20T16:12:02.617Z,66.99
2022-11-20T16:15:13.794Z,67.56
2022-11-20T16:17:47.267Z,66.87
2022-11-20T16:20:17.758Z,67.55
2022-11-20T16:22:48.227Z,67.33
2022-11-20T16:25:18.813Z,67.45
2022-11-20T16:27:49.165Z,67.24
2022-11-20T16:30:19.960Z,67.45
2022-11-20T16:32:50.407Z,67.46
2022-11-20T16:35:20.949Z,67.20
2022-11-20T16:37:51.261Z,67.30
2022-11-20T16:40:21.683Z,67.29
2022-11-20T16:42:52.252Z,67.55
2022-11-20T16:45:26.944Z,67.44
2022-11-20T16:47:59.206Z,67.20
2022-11-20T16:50:29.745Z,67.29
2022-11-20T16:53:00.183Z,67.57
2022-11-20T16:55:30.502Z,67.71
2022-11-20T16:58:00.693Z,67.74
2022-11-20T17:00:31.055Z,67.94
2022-11-20T17:03:01.468Z,67.86
2022-11-20T17:05:33.392Z,67.65
2022-11-20T17:08:04.912Z,67.92
2022-11-20T17:10:35.429Z,67.92
2022-11-20T17:13:05.951Z,67.99
2022-11-20T17:15:36.242Z,68.11
2022-11-20T17:18:08.214Z,67.96
2022-11-20T17:20:39.837Z,67.88
2022-11-20T17:23:10.083Z,67.88
2022-11-20T17:25:40.509Z,68.02
2022-11-20T17:28:10.812Z,67.90
2022-11-20T17:30:41.234Z,68.11
2022-11-20T17:33:11.565Z,68.25
2022-11-20T17:35:41.874Z,68.31
2022-11-20T17:38:12.136Z,68.36
2022-11-20T17:40:42.567Z,68.32
2022-11-20T17:43:13.005Z,68.07
2022-11-20T17:45:43.470Z,68.18
2022-11-20T17:48:14.904Z,68.27
2022-11-20T17:50:45.247Z,68.07
2022-11-20T17:53:15.669Z,68.20
2022-11-20T17:56:04.043Z,68.10
2022-11-20T17:58:34.262Z,68.21
2022-11-20T18:01:10.193Z,68.23
2022-11-20T18:03:40.834Z,68.41
2022-11-20T18:06:25.007Z,68.19
2022-11-20T18:08:55.778Z,67.98
2022-11-20T18:11:31.735Z,68.29
2022-11-20T18:14:22.524Z,68.37
2022-11-20T18:17:01.283Z,68.71
2022-11-20T18:19:37.599Z,68.69
2022-11-20T18:22:12.724Z,68.76
2022-11-20T18:24:44.245Z,68.76
2022-11-20T18:27:21.600Z,68.58
2022-11-20T18:29:54.052Z,68.87
2022-11-20T18:32:25.213Z,68.66
2022-11-20T18:34:55.385Z,68.78
2022-11-20T18:37:25.488Z,68.68
2022-11-20T18:39:55.696Z,68.65
2022-11-20T18:42:44.096Z,68.80
2022-11-20T18:45:14.860Z,68.89
2022-11-20T18:47:46.252Z,69.09
2022-11-20T18:50:16.434Z,69.04
2022-11-20T18:52:50.188Z,68.97
2022-11-20T18:55:20.536Z,69.10
2022-11-20T18:57:50.749Z,69.16
2022-11-20T19:00:21.012Z,69.21
2022-11-20T19:02:51.259Z,68.95
2022-11-20T19:05:21.654Z,69.16
2022-11-20T19:07:52.020Z,69.13
2022-11-20T19:10:23.102Z,69.44
2022-11-20T19:12:53.377Z,69.50
2022-11-20T19:15:23.796Z,69.18
2022-11-20T19:17:54.366Z,68.88
2022-11-20T19:20:24.484Z,68.78
2022-11-20T19:22:55.866Z,69.17
2022-11-20T19:25:26.236Z,69.10
2022-11-20T19:27:56.525Z,68.92
2022-11-20T19:30:26.996Z,68.56
2022-11-20T19:32:57.317Z,69.00
2022-11-20T19:35:27.779Z,69.03
2022-11-20T19:38:02.617Z,68.71
2022-11-20T19:40:35.599Z,68.87
2022-11-20T19:43:07.354Z,68.69
2022-11-20T19:45:37.671Z,69.28
2022-11-20T19:48:08.630Z,69.31
2022-11-20T19:50:39.081Z,69.15
2022-11-20T19:53:09.673Z,68.97
2022-11-20T19:55:40.461Z,69.28
2022-11-20T19:58:10.719Z,69.39
2022-11-20T20:00:41.059Z,69.07
2022-11-20T20:03:11.268Z,69.21
2022-11-20T20:05:42.245Z,69.25
2022-11-20T20:08:16.545Z,68.96
2022-11-20T20:10:47.461Z,68.88
2022-11-20T20:13:17.742Z,69.22
2022-11-20T20:15:48.042Z,68.80
2022-11-20T20:18:18.885Z,68.70
2022-11-20T20:20:49.270Z,68.75
2022-11-20T20:23:19.670Z,68.70
2022-11-20T20:25:51.404Z,68.80
2022-11-20T20:28:21.707Z,68.83
2022-11-20T20:30:52.184Z,68.33
2022-11-20T20:33:22.704Z,68.69
2022-11-20T20:35:53.048Z,68.35
2022-11-20T20:38:24.577Z,68.36
2022-11-20T20:40:54.899Z,68.60
2022-11-20T20:43:25.004Z,68.33
2022-11-20T20:45:56.303Z,68.71
2022-11-20T20:48:27.011Z,68.52
2022-11-20T20:51:05.277Z,68.60
2022-11-20T20:53:35.493Z,68.36
2022-11-20T20:56:06.045Z,68.48
2022-11-20T20:58:36.356Z,68.59
2022-11-20T21:01:13.285Z,68.22
2022-11-20T21:03:43.719Z,68.71
2022-11-20T21:06:15.229Z,68.76
2022-11-20T21:08:45.530Z,68.64
2022-11-20T21:11:18.196Z,68.76
2022-11-20T21:13:50.054Z,68.83
2022-11-20T21:16:22.780Z,68.86
2022-11-20T21:18:53.094Z,68.78
2022-11-20T21:21:41.647Z,68.82
2022-11-20T21:24:11.954Z,68.81
2022-11-20T21:26:41.988Z,68.96
2022-11-20T21:29:12.409Z,68.50
2022-11-20T21:31:42.775Z,68.82
2022-11-20T21:34:15.499Z,68.43
2022-11-20T21:36:46.420Z,68.69
2022-11-20T21:39:18.038Z,68.64
2022-11-20T21:41:48.537Z,68.82
2022-11-20T21:44:34.834Z,68.71
2022-11-20T21:47:05.118Z,68.69
2022-11-20T21:49:35.165Z,68.71
2022-11-20T21:52:05.325Z,68.72
2022-11-20T21:54:37.972Z,68.65
2022-11-20T21:57:08.286Z,68.81
2022-11-20T21:59:39.627Z,68.77
2022-11-20T22:02:10.348Z,68.86
2022-11-20T22:04:40.776Z,68.84
2022-11-20T22:07:10.922Z,68.82
2022-11-20T22:09:41.383Z,68.66
2022-11-20T22:12:12.235Z,68.96
2022-11-20T22:14:42.623Z,68.97
2022-11-20T22:17:17.123Z,68.77
2022-11-20T22:19:47.721Z,68.84
2022-11-20T22:22:18.329Z,69.10
2022-11-20T22:24:48.677Z,68.84
2022-11-20T22:27:18.830Z,68.95
2022-11-20T22:29:49.118Z,69.04
2022-11-20T22:32:19.445Z,69.28
2022-11-20T22:37:08.112Z,69.50
2022-11-20T22:39:40.171Z,69.85
2022-11-20T22:42:10.520Z,69.87
2022-11-20T22:44:40.885Z,69.63
2022-11-20T22:47:11.761Z,69.51
2022-11-20T22:49:42.099Z,70.09
2022-11-20T22:52:12.483Z,69.86
2022-11-20T22:54:44.793Z,69.79
2022-11-20T22:57:15.102Z,69.95
2022-11-20T22:59:45.477Z,69.83
2022-11-20T23:02:15.599Z,69.62
2022-11-20T23:04:46.519Z,69.67
2022-11-20T23:07:17.162Z,69.16
2022-11-20T23:09:47.497Z,69.82
2022-11-20T23:12:17.963Z,69.71
2022-11-20T23:14:49.776Z,69.60
2022-11-20T23:17:20.095Z,69.92
2022-11-20T23:19:50.208Z,70.00
2022-11-20T23:22:20.332Z,69.61
2022-11-20T23:24:50.522Z,69.65
2022-11-20T23:27:22.903Z,69.69
2022-11-20T23:29:56.412Z,69.57
2022-11-20T23:32:26.765Z,69.66
2022-11-20T23:34:57.387Z,69.66
2022-11-20T23:37:27.817Z,69.59
2022-11-20T23:39:58.202Z,69.76
2022-11-20T23:42:28.478Z,69.43
2022-11-20T23:44:58.823Z,69.58
2022-11-20T23:47:29.195Z,69.47
2022-11-20T23:49:59.505Z,69.44
2022-11-20T23:52:29.766Z,69.68
2022-11-20T23:55:00.030Z,69.58
2022-11-20T23:57:30.277Z,69.50
